createdAt,value
2022-10-19T00:02:21.908Z,11.90
2022-10-19T00:04:48.448Z,11.90
2022-10-19T00:07:14.911Z,12.00
2022-10-19T00:09:43.919Z,12.10
2022-10-19T00:12:12.912Z,12.00
2022-10-19T00:14:39.458Z,12.00
2022-10-19T00:17:06.036Z,12.20
2022-10-19T00:19:32.545Z,12.40
2022-10-19T00:21:58.989Z,12.30
2022-10-19T00:24:25.438Z,12.40
2022-10-19T00:26:51.904Z,12.40
2022-10-19T00:29:18.805Z,12.60
2022-10-19T00:31:45.455Z,12.50
2022-10-19T00:34:12.125Z,12.60
2022-10-19T00:36:40.137Z,12.80
2022-10-19T00:39:10.898Z,12.90
2022-10-19T00:41:39.986Z,13.10
2022-10-19T00:44:21.086Z,13.00
2022-10-19T00:46:53.653Z,12.70
2022-10-19T00:49:28.753Z,12.90
2022-10-19T00:52:01.979Z,12.70
2022-10-19T00:54:29.344Z,13.00
2022-10-19T00:56:57.895Z,13.00
2022-10-19T00:59:25.191Z,12.90
2022-10-19T01:01:52.650Z,13.00
2022-10-19T01:04:21.855Z,13.10
2022-10-19T01:06:48.457Z,12.70
2022-10-19T01:09:14.961Z,12.50
2022-10-19T01:12:08.188Z,12.70
2022-10-19T01:14:59.760Z,12.60
2022-10-19T01:18:04.036Z,12.70
2022-10-19T01:21:07.631Z,12.60
2022-10-19T01:24:03.523Z,12.80
2022-10-19T01:26:32.986Z,13.20
2022-10-19T01:29:20.826Z,13.40
2022-10-19T01:31:52.388Z,13.20
2022-10-19T01:34:41.100Z,13.20
2022-10-19T01:37:51.007Z,13.30
2022-10-19T01:41:09.429Z,13.20
2022-10-19T01:43:59.263Z,13.50
2022-10-19T01:46:38.913Z,13.40
2022-10-19T01:49:16.187Z,13.60
2022-10-19T01:51:46.936Z,13.80
2022-10-19T01:54:15.190Z,14.10
2022-10-19T01:56:43.255Z,14.10
2022-10-19T01:59:10.983Z,14.10
2022-10-19T02:01:41.170Z,14.30
2022-10-19T02:04:08.371Z,14.40
2022-10-19T02:06:35.509Z,14.40
2022-10-19T02:09:02.021Z,14.50
2022-10-19T02:11:28.801Z,14.00
2022-10-19T02:13:59.785Z,14.00
2022-10-19T02:16:31.616Z,14.40
2022-10-19T02:18:59.092Z,14.00
2022-10-19T02:21:26.648Z,13.50
2022-10-19T02:23:54.240Z,13.60
2022-10-19T02:26:21.122Z,13.90
2022-10-19T02:28:47.850Z,14.10
2022-10-19T02:31:14.380Z,14.00
2022-10-19T02:33:40.953Z,13.90
2022-10-19T02:36:07.760Z,13.50
2022-10-19T02:38:34.437Z,13.60
2022-10-19T02:41:08.586Z,13.60
2022-10-19T02:43:37.609Z,13.40
2022-10-19T02:46:08.654Z,13.20
2022-10-19T02:48:36.372Z,13.00
2022-10-19T02:51:02.928Z,13.00
2022-10-19T02:53:29.482Z,12.80
2022-10-19T02:55:56.025Z,12.80
2022-10-19T02:58:22.533Z,12.80
2022-10-19T03:00:49.039Z,13.30
2022-10-19T03:03:15.534Z,13.20
2022-10-19T03:05:42.102Z,13.30
2022-10-19T03:08:08.768Z,13.50
2022-10-19T03:10:35.265Z,13.40
2022-10-19T03:13:01.752Z,13.70
2022-10-19T03:15:29.850Z,13.70
2022-10-19T03:17:56.758Z,13.80
2022-10-19T03:20:23.766Z,14.00
2022-10-19T03:22:50.523Z,14.00
2022-10-19T03:25:17.133Z,14.20
2022-10-19T03:27:43.641Z,14.30
2022-10-19T03:30:10.619Z,14.50
2022-10-19T03:32:37.076Z,14.40
2022-10-19T03:35:03.658Z,14.50
2022-10-19T03:37:30.232Z,14.60
2022-10-19T03:40:04.326Z,14.70
2022-10-19T03:42:31.941Z,14.70
2022-10-19T03:45:06.072Z,14.70
2022-10-19T03:47:35.379Z,14.70
2022-10-19T03:50:07.517Z,14.40
2022-10-19T03:52:34.313Z,14.10
2022-10-19T03:55:00.830Z,13.90
2022-10-19T03:57:27.338Z,14.00
2022-10-19T03:59:53.825Z,14.20
2022-10-19T04:02:20.336Z,14.30
2022-10-19T04:04:46.817Z,14.10
2022-10-19T04:07:13.307Z,14.30
2022-10-19T04:09:39.886Z,14.20
2022-10-19T04:12:06.363Z,14.20
2022-10-19T04:14:39.327Z,14.10
2022-10-19T04:17:19.400Z,13.90
2022-10-19T04:19:45.864Z,14.00
2022-10-19T04:22:12.354Z,13.90
2022-10-19T04:24:38.908Z,14.10
2022-10-19T04:27:05.381Z,14.20
2022-10-19T04:29:31.894Z,14.00
2022-10-19T04:31:58.942Z,14.00
2022-10-19T04:34:25.393Z,14.20
2022-10-19T04:36:53.010Z,14.30
2022-10-19T04:39:19.504Z,14.00
2022-10-19T04:41:45.992Z,14.00
2022-10-19T04:44:12.634Z,14.00
2022-10-19T04:46:39.249Z,13.80
2022-10-19T04:49:06.777Z,14.00
2022-10-19T04:51:34.092Z,14.10
2022-10-19T04:54:01.058Z,14.00
2022-10-19T04:56:28.139Z,14.40
2022-10-19T04:58:58.762Z,14.10
2022-10-19T05:01:27.069Z,14.10
2022-10-19T05:03:59.253Z,14.20
2022-10-19T05:06:26.267Z,14.20
2022-10-19T05:08:57.432Z,14.20
2022-10-19T05:11:24.935Z,14.20
2022-10-19T05:13:51.709Z,14.20
2022-10-19T05:16:20.835Z,14.50
2022-10-19T05:18:51.895Z,14.30
2022-10-19T05:21:18.784Z,14.30
2022-10-19T05:23:45.670Z,14.00
2022-10-19T05:26:16.502Z,14.10
2022-10-19T05:28:43.924Z,14.10
2022-10-19T05:31:11.552Z,13.70
2022-10-19T05:33:38.902Z,13.80
2022-10-19T05:36:14.407Z,13.80
2022-10-19T05:38:41.533Z,14.10
2022-10-19T05:41:08.105Z,14.00
2022-10-19T05:43:34.640Z,14.00
2022-10-19T05:46:12.440Z,14.10
2022-10-19T05:48:39.440Z,14.10
2022-10-19T05:51:07.889Z,14.10
2022-10-19T05:53:35.130Z,14.10
2022-10-19T05:56:01.830Z,14.20
2022-10-19T05:58:28.336Z,14.00
2022-10-19T06:00:56.684Z,14.10
2022-10-19T06:03:24.327Z,14.30
2022-10-19T06:05:51.324Z,14.30
2022-10-19T06:08:18.566Z,14.10
2022-10-19T06:10:45.599Z,13.80
2022-10-19T06:13:13.540Z,14.00
2022-10-19T06:15:40.677Z,14.00
2022-10-19T06:18:07.974Z,14.30
2022-10-19T06:20:35.725Z,14.30
2022-10-19T06:23:02.566Z,14.30
2022-10-19T06:25:33.184Z,14.10
2022-10-19T06:28:00.097Z,14.40
2022-10-19T06:30:27.052Z,14.30
2022-10-19T06:32:53.689Z,14.10
2022-10-19T06:35:20.795Z,14.00
2022-10-19T06:37:47.291Z,14.10
2022-10-19T06:40:13.844Z,14.30
2022-10-19T06:42:40.430Z,14.00
2022-10-19T06:45:08.743Z,13.90
2022-10-19T06:47:36.072Z,14.10
2022-10-19T06:50:04.820Z,14.30
2022-10-19T06:52:32.051Z,13.90
2022-10-19T06:54:58.621Z,13.60
2022-10-19T06:57:25.079Z,14.00
2022-10-19T06:59:53.056Z,14.00
2022-10-19T07:02:20.759Z,14.20
2022-10-19T07:04:47.383Z,14.20
2022-10-19T07:07:13.893Z,14.30
2022-10-19T07:09:40.444Z,14.00
2022-10-19T07:12:07.028Z,14.00
2022-10-19T07:14:38.604Z,14.30
2022-10-19T07:17:08.521Z,14.20
2022-10-19T07:19:34.986Z,14.30
2022-10-19T07:22:01.639Z,14.60
2022-10-19T07:24:28.181Z,14.70
2022-10-19T07:26:54.676Z,14.80
2022-10-19T07:29:21.373Z,14.70
2022-10-19T07:31:48.179Z,14.50
2022-10-19T07:34:15.189Z,14.60
2022-10-19T07:36:45.192Z,14.50
2022-10-19T07:39:12.512Z,14.50
2022-10-19T07:41:39.156Z,14.60
2022-10-19T07:44:05.931Z,14.50
2022-10-19T07:46:37.213Z,14.70
2022-10-19T07:49:06.425Z,15.00
2022-10-19T07:51:33.104Z,14.80
2022-10-19T07:53:59.697Z,14.80
2022-10-19T07:56:27.482Z,14.50
2022-10-19T07:58:55.764Z,14.50
2022-10-19T08:01:24.347Z,14.60
2022-10-19T08:06:40.000Z,14.90
2022-10-19T08:09:06.572Z,15.10
2022-10-19T08:11:34.426Z,14.80
2022-10-19T08:14:03.085Z,15.10
2022-10-19T08:16:40.311Z,15.10
2022-10-19T08:19:12.127Z,14.50
2022-10-19T08:21:40.151Z,14.90
2022-10-19T08:24:07.485Z,14.90
2022-10-19T08:26:37.701Z,15.20
2022-10-19T08:29:06.844Z,14.80
2022-10-19T08:31:33.501Z,14.80
2022-10-19T08:34:00.185Z,14.80
2022-10-19T08:36:27.534Z,14.40
2022-10-19T08:38:54.002Z,14.30
2022-10-19T08:41:29.433Z,14.40
2022-10-19T08:44:14.234Z,14.20
2022-10-19T08:47:00.478Z,14.40
2022-10-19T08:49:30.600Z,14.50
2022-10-19T08:52:04.906Z,14.30
2022-10-19T08:54:39.971Z,14.60
2022-10-19T08:57:15.516Z,14.50
2022-10-19T08:59:50.165Z,14.80
2022-10-19T09:02:35.243Z,14.90
2022-10-19T09:05:32.453Z,14.40
2022-10-19T09:07:59.254Z,14.70
2022-10-19T09:10:29.530Z,15.10
2022-10-19T09:13:01.411Z,15.00
2022-10-19T09:15:44.521Z,15.30
2022-10-19T09:18:14.143Z,15.40
2022-10-19T09:20:44.117Z,15.40
2022-10-19T09:23:26.366Z,15.50
2022-10-19T09:25:53.913Z,15.70
2022-10-19T09:28:42.112Z,15.80
2022-10-19T09:31:17.217Z,16.10
2022-10-19T09:33:50.396Z,16.30
2022-10-19T09:36:22.566Z,16.50
2022-10-19T09:38:54.201Z,16.70
2022-10-19T09:41:22.497Z,17.00
2022-10-19T09:43:53.809Z,17.40
2022-10-19T09:46:39.645Z,17.70
2022-10-19T09:49:06.182Z,18.20
2022-10-19T09:51:46.758Z,17.90
2022-10-19T09:54:25.245Z,17.60
2022-10-19T09:56:56.174Z,17.10
2022-10-19T09:59:24.944Z,17.20
2022-10-19T10:04:36.395Z,17.00
2022-10-19T10:07:03.971Z,16.80
2022-10-19T10:09:30.595Z,16.80
2022-10-19T10:11:59.825Z,17.00
2022-10-19T10:14:32.468Z,16.90
2022-10-19T10:17:04.731Z,16.60
2022-10-19T10:19:34.047Z,16.50
2022-10-19T10:22:00.597Z,16.50
2022-10-19T10:24:32.089Z,17.00
2022-10-19T10:27:04.302Z,17.70
2022-10-19T10:29:36.470Z,17.90
2022-10-19T10:32:06.860Z,17.90
2022-10-19T10:34:51.258Z,18.10
2022-10-19T10:37:24.528Z,18.30
2022-10-19T10:39:52.882Z,18.60
2022-10-19T10:42:25.865Z,18.90
2022-10-19T10:44:53.231Z,18.90
2022-10-19T10:47:23.065Z,18.90
2022-10-19T10:50:02.641Z,19.30
2022-10-19T10:52:31.431Z,19.10
2022-10-19T10:55:18.834Z,18.30
2022-10-19T10:57:48.129Z,18.10
2022-10-19T11:00:19.923Z,17.90
2022-10-19T11:02:58.999Z,17.70
2022-10-19T11:05:31.890Z,17.70
2022-10-19T11:08:29.144Z,17.40
2022-10-19T11:10:59.478Z,17.70
2022-10-19T11:13:36.206Z,18.00
2022-10-19T11:16:09.063Z,18.20
2022-10-19T11:18:35.503Z,18.60
2022-10-19T11:21:14.774Z,19.00
2022-10-19T11:24:05.376Z,19.00
2022-10-19T11:26:56.175Z,18.90
2022-10-19T11:29:25.616Z,19.20
2022-10-19T11:31:54.664Z,19.00
2022-10-19T11:34:40.003Z,19.00
2022-10-19T11:37:30.445Z,18.30
2022-10-19T11:40:05.894Z,18.50
2022-10-19T11:42:54.093Z,18.70
2022-10-19T11:45:39.462Z,18.20
2022-10-19T11:48:24.820Z,17.80
2022-10-19T11:50:54.053Z,17.60
2022-10-19T11:53:45.444Z,17.80
2022-10-19T11:56:20.714Z,17.70
2022-10-19T11:58:59.523Z,17.40
2022-10-19T12:01:33.082Z,17.60
2022-10-19T12:04:14.945Z,17.50
2022-10-19T12:06:53.464Z,17.60
2022-10-19T12:09:49.249Z,17.60
2022-10-19T12:12:32.335Z,17.30
2022-10-19T12:15:11.148Z,18.00
2022-10-19T12:17:39.055Z,18.10
2022-10-19T12:20:17.432Z,18.20
2022-10-19T12:22:46.429Z,18.30
2022-10-19T12:25:14.350Z,18.40
2022-10-19T12:27:41.522Z,18.50
2022-10-19T12:30:20.528Z,18.90
2022-10-19T12:33:03.310Z,18.70
2022-10-19T12:35:52.389Z,18.70
2022-10-19T12:38:25.202Z,18.60
2022-10-19T12:41:05.671Z,18.40
2022-10-19T12:43:52.351Z,18.20
2022-10-19T12:46:31.719Z,18.60
2022-10-19T12:49:26.042Z,18.80
2022-10-19T12:52:02.643Z,18.80
2022-10-19T12:54:31.915Z,18.80
2022-10-19T12:57:00.861Z,18.40
2022-10-19T12:59:35.503Z,17.90
2022-10-19T13:02:05.179Z,17.70
2022-10-19T13:04:36.068Z,18.10
2022-10-19T13:07:04.957Z,18.80
2022-10-19T13:09:35.286Z,19.10
2022-10-19T13:12:21.396Z,19.60
2022-10-19T13:15:05.024Z,20.00
2022-10-19T13:17:34.924Z,19.70
2022-10-19T13:20:13.765Z,20.20
2022-10-19T13:22:46.294Z,20.40
2022-10-19T13:25:27.099Z,20.90
2022-10-19T13:27:55.068Z,20.70
2022-10-19T13:30:38.072Z,20.90
2022-10-19T13:33:28.320Z,20.60
2022-10-19T13:36:02.177Z,20.90
2022-10-19T13:38:42.172Z,21.10
2022-10-19T13:41:14.687Z,21.20
2022-10-19T13:43:51.255Z,21.40
2022-10-19T13:46:29.934Z,21.10
2022-10-19T13:49:13.004Z,21.40
2022-10-19T13:51:57.772Z,21.40
2022-10-19T13:54:27.306Z,21.00
2022-10-19T13:57:18.624Z,21.20
2022-10-19T14:00:06.976Z,21.20
2022-10-19T14:03:08.058Z,21.20
2022-10-19T14:06:02.865Z,21.00
2022-10-19T14:08:36.980Z,20.30
2022-10-19T14:11:15.066Z,20.00
2022-10-19T14:13:41.857Z,20.10
2022-10-19T14:16:18.308Z,20.00
2022-10-19T14:18:53.492Z,19.80
2022-10-19T14:21:29.911Z,19.50
2022-10-19T14:23:56.676Z,19.70
2022-10-19T14:26:25.472Z,19.50
2022-10-19T14:28:54.210Z,19.80
2022-10-19T14:31:23.503Z,20.00
2022-10-19T14:33:58.262Z,20.20
2022-10-19T14:36:35.217Z,20.30
2022-10-19T14:39:01.861Z,20.40
2022-10-19T14:41:28.423Z,20.70
2022-10-19T14:44:00.261Z,20.50
2022-10-19T14:46:30.593Z,20.40
2022-10-19T14:49:05.426Z,20.50
2022-10-19T14:51:45.115Z,20.50
2022-10-19T14:54:29.746Z,20.30
2022-10-19T14:57:00.649Z,20.30
2022-10-19T14:59:44.778Z,20.20
2022-10-19T15:02:22.345Z,19.80
2022-10-19T15:04:49.849Z,19.10
2022-10-19T15:07:21.916Z,19.00
2022-10-19T15:10:23.257Z,18.70
2022-10-19T15:12:50.905Z,18.60
2022-10-19T15:15:28.487Z,18.50
2022-10-19T15:17:54.975Z,18.40
2022-10-19T15:20:30.122Z,17.80
2022-10-19T15:22:57.962Z,17.60
2022-10-19T15:25:34.275Z,17.60
2022-10-19T15:28:36.050Z,17.60
2022-10-19T15:31:28.880Z,17.60
2022-10-19T15:33:57.903Z,17.70
2022-10-19T15:36:25.331Z,18.10
2022-10-19T15:39:06.238Z,18.10
2022-10-19T15:41:44.576Z,17.90
2022-10-19T15:44:43.833Z,17.70
2022-10-19T15:47:18.011Z,17.60
2022-10-19T15:49:44.651Z,17.60
2022-10-19T15:52:37.729Z,17.70
2022-10-19T15:55:04.593Z,17.70
2022-10-19T15:57:36.922Z,17.40
2022-10-19T16:00:12.649Z,17.50
2022-10-19T16:02:42.196Z,17.50
2022-10-19T16:05:08.984Z,17.70
2022-10-19T16:07:38.141Z,17.60
2022-10-19T16:10:05.422Z,17.40
2022-10-19T16:12:31.922Z,17.40
2022-10-19T16:14:58.406Z,17.20
2022-10-19T16:17:24.890Z,17.30
2022-10-19T16:19:51.369Z,17.20
2022-10-19T16:22:17.829Z,17.20
2022-10-19T16:24:44.291Z,17.00
2022-10-19T16:27:14.981Z,17.00
2022-10-19T16:29:42.363Z,17.00
2022-10-19T16:32:09.364Z,16.60
2022-10-19T16:34:35.852Z,16.40
2022-10-19T16:37:05.730Z,16.50
2022-10-19T16:39:33.616Z,16.60
2022-10-19T16:42:00.320Z,16.50
2022-10-19T16:44:26.920Z,16.40
2022-10-19T16:46:55.484Z,16.40
2022-10-19T16:49:22.102Z,16.20
2022-10-19T16:51:50.910Z,16.30
2022-10-19T16:54:19.865Z,16.10
2022-10-19T16:56:47.413Z,16.20
2022-10-19T16:59:16.480Z,15.90
2022-10-19T17:01:44.585Z,16.00
2022-10-19T17:04:12.395Z,15.80
2022-10-19T17:06:39.376Z,15.60
2022-10-19T17:11:52.500Z,15.40
2022-10-19T17:14:19.020Z,15.00
2022-10-19T17:16:45.559Z,15.00
2022-10-19T17:19:12.063Z,15.10
2022-10-19T17:21:39.399Z,14.80
2022-10-19T17:24:08.567Z,14.90
2022-10-19T17:26:40.146Z,14.90
2022-10-19T17:29:06.980Z,14.80
2022-10-19T17:31:34.013Z,14.50
2022-10-19T17:34:01.843Z,14.60
2022-10-19T17:36:31.112Z,14.60
2022-10-19T17:39:00.368Z,14.70
2022-10-19T17:41:27.521Z,14.60
2022-10-19T17:43:55.622Z,14.60
2022-10-19T17:46:25.687Z,14.60
2022-10-19T17:48:52.330Z,14.50
2022-10-19T17:51:21.177Z,14.40
2022-10-19T17:53:48.581Z,14.20
2022-10-19T17:56:17.855Z,14.30
2022-10-19T17:58:47.634Z,14.30
2022-10-19T18:01:18.666Z,14.10
2022-10-19T18:03:45.616Z,14.10
2022-10-19T18:06:15.052Z,14.00
2022-10-19T18:08:44.168Z,13.90
2022-10-19T18:11:16.713Z,13.90
2022-10-19T18:13:43.593Z,13.80
2022-10-19T18:16:15.525Z,13.80
2022-10-19T18:18:45.678Z,13.80
2022-10-19T18:21:13.673Z,13.70
2022-10-19T18:23:40.267Z,13.60
2022-10-19T18:26:12.867Z,13.40
2022-10-19T18:28:40.048Z,13.50
2022-10-19T18:31:19.616Z,13.40
2022-10-19T18:34:01.502Z,13.10
2022-10-19T18:36:31.562Z,13.20
2022-10-19T18:38:59.875Z,13.10
2022-10-19T18:41:26.995Z,13.10
2022-10-19T18:43:55.382Z,12.90
2022-10-19T18:46:23.730Z,13.00
2022-10-19T18:48:50.220Z,13.10
2022-10-19T18:51:17.909Z,12.90
2022-10-19T18:53:45.571Z,12.90
2022-10-19T18:56:14.158Z,13.10
2022-10-19T18:58:40.995Z,12.60
2022-10-19T19:01:07.443Z,12.50
2022-10-19T19:03:34.781Z,12.10
2022-10-19T19:06:02.772Z,11.80
2022-10-19T19:08:29.706Z,11.90
2022-10-19T19:10:56.897Z,12.30
2022-10-19T19:13:23.777Z,12.30
2022-10-19T19:15:59.617Z,12.20
2022-10-19T19:18:26.454Z,12.30
2022-10-19T19:20:53.912Z,11.80
2022-10-19T19:23:20.440Z,11.50
2022-10-19T19:25:48.272Z,11.40
2022-10-19T19:28:14.781Z,11.80
2022-10-19T19:30:42.635Z,12.20
2022-10-19T19:33:09.254Z,12.30
2022-10-19T19:35:42.945Z,11.90
2022-10-19T19:38:10.162Z,11.90
2022-10-19T19:40:43.778Z,12.40
2022-10-19T19:43:11.638Z,12.40
2022-10-19T19:45:38.276Z,12.30
2022-10-19T19:48:06.440Z,12.30
2022-10-19T19:50:33.750Z,12.30
2022-10-19T19:53:00.863Z,11.80
2022-10-19T19:55:28.017Z,11.30
2022-10-19T19:57:55.122Z,11.30
2022-10-19T20:00:22.689Z,11.20
2022-10-19T20:02:53.153Z,11.40
2022-10-19T20:05:19.847Z,11.30
2022-10-19T20:07:46.671Z,11.30
2022-10-19T20:10:16.060Z,11.90
2022-10-19T20:12:43.588Z,12.00
2022-10-19T20:15:11.145Z,12.00
2022-10-19T20:17:38.659Z,11.90
2022-10-19T20:20:06.507Z,12.00
2022-10-19T20:22:33.219Z,12.10
2022-10-19T20:24:59.706Z,12.00
2022-10-19T20:27:26.397Z,12.00
2022-10-19T20:29:58.299Z,11.90
2022-10-19T20:32:26.033Z,11.80
2022-10-19T20:34:52.542Z,11.70
2022-10-19T20:37:19.718Z,11.60
2022-10-19T20:39:47.375Z,11.70
2022-10-19T20:42:15.031Z,11.60
2022-10-19T20:44:45.930Z,11.60
2022-10-19T20:47:12.646Z,11.50
2022-10-19T20:49:41.671Z,11.10
2022-10-19T20:52:08.150Z,11.10
2022-10-19T20:54:37.995Z,10.90
2022-10-19T20:57:07.022Z,10.60
2022-10-19T20:59:37.230Z,10.70
2022-10-19T21:02:03.750Z,11.20
2022-10-19T21:04:30.550Z,11.30
2022-10-19T21:07:00.960Z,11.20
2022-10-19T21:09:27.522Z,10.90
2022-10-19T21:11:53.959Z,10.80
2022-10-19T21:14:26.928Z,11.10
2022-10-19T21:16:56.820Z,11.20
2022-10-19T21:19:25.219Z,10.90
2022-10-19T21:21:56.926Z,10.90
2022-10-19T21:24:25.988Z,11.00
2022-10-19T21:26:52.981Z,11.10
2022-10-19T21:29:19.594Z,10.60
2022-10-19T21:31:49.177Z,10.80
2022-10-19T21:34:27.249Z,10.70
2022-10-19T21:36:53.889Z,10.50
2022-10-19T21:39:21.022Z,10.50
2022-10-19T21:41:47.715Z,10.50
2022-10-19T21:44:15.675Z,10.70
2022-10-19T21:46:45.163Z,10.80
2022-10-19T21:49:12.295Z,10.70
2022-10-19T21:51:49.217Z,10.80
2022-10-19T21:54:18.481Z,10.40
2022-10-19T21:56:45.814Z,10.10
2022-10-19T21:59:14.280Z,10.50
2022-10-19T22:01:41.621Z,10.50
2022-10-19T22:04:16.893Z,10.60
2022-10-19T22:06:43.472Z,10.60
2022-10-19T22:09:13.494Z,10.60
2022-10-19T22:11:40.052Z,10.50
2022-10-19T22:14:06.590Z,10.70
2022-10-19T22:16:35.039Z,10.50
2022-10-19T22:19:01.590Z,10.30
2022-10-19T22:21:30.528Z,9.80
2022-10-19T22:24:02.444Z,9.60
2022-10-19T22:26:31.431Z,9.80
2022-10-19T22:28:59.195Z,10.30
2022-10-19T22:31:27.090Z,10.30
2022-10-19T22:33:53.653Z,10.50
2022-10-19T22:36:20.137Z,10.40
2022-10-19T22:38:46.643Z,10.40
2022-10-19T22:41:13.098Z,10.20
2022-10-19T22:43:39.567Z,10.30
2022-10-19T22:46:06.106Z,10.30
2022-10-19T22:48:32.622Z,10.40
2022-10-19T22:50:59.177Z,10.40
2022-10-19T22:53:25.643Z,10.30
2022-10-19T22:55:52.089Z,10.20
2022-10-19T22:58:18.847Z,10.10
2022-10-19T23:00:45.587Z,9.90
2022-10-19T23:03:12.100Z,9.80
2022-10-19T23:05:38.549Z,9.90
2022-10-19T23:08:05.408Z,10.00
2022-10-19T23:10:32.650Z,9.90
2022-10-19T23:12:59.129Z,9.40
2022-10-19T23:15:25.607Z,9.60
2022-10-19T23:17:52.043Z,9.90
2022-10-19T23:20:18.477Z,9.80
2022-10-19T23:22:44.950Z,9.80
2022-10-19T23:25:11.429Z,9.90
2022-10-19T23:27:38.305Z,9.90
2022-10-19T23:30:05.580Z,9.80
2022-10-19T23:32:32.062Z,9.80
2022-10-19T23:34:58.546Z,9.70
2022-10-19T23:37:25.012Z,9.80
2022-10-19T23:39:51.447Z,9.60
2022-10-19T23:42:17.986Z,9.80
2022-10-19T23:44:44.497Z,9.90
2022-10-19T23:47:36.848Z,9.80
2022-10-19T23:50:04.064Z,9.80
2022-10-19T23:52:30.563Z,9.50
2022-10-19T23:54:57.022Z,9.50
2022-10-19T23:57:23.513Z,9.70
2022-10-19T23:59:49.944Z,9.70
